sensor_id;sensor_type;location;lat;lon;timestamp;P1;durP1;ratioP1;P2;durP2;ratioP2
20067;SDS011;10194;50.824;7.134;2023-12-29T00:00:41;60.10;;;49.37;;
20067;SDS011;10194;50.824;7.134;2023-12-29T00:03:07;61.33;;;49.77;;
20067;SDS011;10194;50.824;7.134;2023-12-29T00:05:33;59.90;;;49.10;;
20067;SDS011;10194;50.824;7.134;2023-12-29T00:07:58;63.23;;;50.23;;
20067;SDS011;10194;50.824;7.134;2023-12-29T00:10:24;61.23;;;49.40;;
20067;SDS011;10194;50.824;7.134;2023-12-29T00:12:50;60.17;;;49.20;;
20067;SDS011;10194;50.824;7.134;2023-12-29T00:15:18;63.43;;;50.93;;
20067;SDS011;10194;50.824;7.134;2023-12-29T00:17:44;59.57;;;48.93;;
20067;SDS011;10194;50.824;7.134;2023-12-29T00:20:11;62.20;;;49.93;;
20067;SDS011;10194;50.824;7.134;2023-12-29T00:22:37;62.97;;;50.67;;
20067;SDS011;10194;50.824;7.134;2023-12-29T00:25:03;59.37;;;48.80;;
20067;SDS011;10194;50.824;7.134;2023-12-29T00:27:30;58.97;;;48.63;;
20067;SDS011;10194;50.824;7.134;2023-12-29T00:29:56;60.37;;;49.23;;
20067;SDS011;10194;50.824;7.134;2023-12-29T00:32:21;58.80;;;48.53;;
20067;SDS011;10194;50.824;7.134;2023-12-29T00:34:47;59.53;;;48.83;;
20067;SDS011;10194;50.824;7.134;2023-12-29T00:37:13;59.37;;;48.80;;
20067;SDS011;10194;50.824;7.134;2023-12-29T00:39:39;63.70;;;50.63;;
20067;SDS011;10194;50.824;7.134;2023-12-29T00:42:05;66.40;;;51.47;;
20067;SDS011;10194;50.824;7.134;2023-12-29T00:44:32;59.80;;;49.13;;
20067;SDS011;10194;50.824;7.134;2023-12-29T00:46:58;59.20;;;48.73;;
20067;SDS011;10194;50.824;7.134;2023-12-29T00:49:25;59.30;;;48.83;;
20067;SDS011;10194;50.824;7.134;2023-12-29T00:51:51;59.53;;;48.93;;
20067;SDS011;10194;50.824;7.134;2023-12-29T00:54:17;62.17;;;49.87;;
20067;SDS011;10194;50.824;7.134;2023-12-29T00:56:47;65.33;;;51.13;;
20067;SDS011;10194;50.824;7.134;2023-12-29T00:59:14;60.37;;;49.40;;
20067;SDS011;10194;50.824;7.134;2023-12-29T01:01:40;59.33;;;48.97;;
20067;SDS011;10194;50.824;7.134;2023-12-29T01:04:06;59.77;;;49.33;;
20067;SDS011;10194;50.824;7.134;2023-12-29T01:06:32;59.13;;;48.80;;
20067;SDS011;10194;50.824;7.134;2023-12-29T01:08:58;59.60;;;48.90;;
20067;SDS011;10194;50.824;7.134;2023-12-29T01:11:23;60.77;;;49.50;;
20067;SDS011;10194;50.824;7.134;2023-12-29T01:13:49;59.47;;;48.90;;
20067;SDS011;10194;50.824;7.134;2023-12-29T01:16:15;60.30;;;49.33;;
20067;SDS011;10194;50.824;7.134;2023-12-29T01:18:41;59.90;;;49.13;;
20067;SDS011;10194;50.824;7.134;2023-12-29T01:21:06;62.43;;;50.40;;
20067;SDS011;10194;50.824;7.134;2023-12-29T01:23:32;63.17;;;50.40;;
20067;SDS011;10194;50.824;7.134;2023-12-29T01:25:58;60.57;;;50.40;;
20067;SDS011;10194;50.824;7.134;2023-12-29T01:28:23;60.03;;;49.30;;
20067;SDS011;10194;50.824;7.134;2023-12-29T01:30:50;59.13;;;48.83;;
20067;SDS011;10194;50.824;7.134;2023-12-29T01:33:16;60.77;;;49.50;;
20067;SDS011;10194;50.824;7.134;2023-12-29T01:35:42;60.03;;;49.27;;
20067;SDS011;10194;50.824;7.134;2023-12-29T01:38:08;60.13;;;49.20;;
20067;SDS011;10194;50.824;7.134;2023-12-29T01:40:41;62.97;;;50.47;;
20067;SDS011;10194;50.824;7.134;2023-12-29T01:43:11;59.73;;;48.93;;
20067;SDS011;10194;50.824;7.134;2023-12-29T01:45:37;61.67;;;50.07;;
20067;SDS011;10194;50.824;7.134;2023-12-29T01:48:03;59.10;;;48.80;;
20067;SDS011;10194;50.824;7.134;2023-12-29T01:50:29;62.20;;;50.10;;
20067;SDS011;10194;50.824;7.134;2023-12-29T01:52:56;59.97;;;49.27;;
20067;SDS011;10194;50.824;7.134;2023-12-29T01:55:24;61.23;;;49.87;;
20067;SDS011;10194;50.824;7.134;2023-12-29T01:57:51;64.80;;;50.83;;
20067;SDS011;10194;50.824;7.134;2023-12-29T02:00:18;59.90;;;49.27;;
20067;SDS011;10194;50.824;7.134;2023-12-29T02:02:47;64.77;;;51.20;;
20067;SDS011;10194;50.824;7.134;2023-12-29T02:05:14;59.60;;;48.97;;
20067;SDS011;10194;50.824;7.134;2023-12-29T02:07:42;59.50;;;48.80;;
20067;SDS011;10194;50.824;7.134;2023-12-29T02:10:08;61.03;;;49.53;;
20067;SDS011;10194;50.824;7.134;2023-12-29T02:12:40;66.33;;;52.00;;
20067;SDS011;10194;50.824;7.134;2023-12-29T02:15:06;59.50;;;48.97;;
20067;SDS011;10194;50.824;7.134;2023-12-29T02:17:38;62.93;;;50.27;;
20067;SDS011;10194;50.824;7.134;2023-12-29T02:20:10;59.57;;;49.10;;
20067;SDS011;10194;50.824;7.134;2023-12-29T02:22:37;64.40;;;51.57;;
20067;SDS011;10194;50.824;7.134;2023-12-29T02:25:03;60.10;;;49.20;;
20067;SDS011;10194;50.824;7.134;2023-12-29T02:30:08;63.70;;;50.47;;
20067;SDS011;10194;50.824;7.134;2023-12-29T02:32:53;61.43;;;49.97;;
20067;SDS011;10194;50.824;7.134;2023-12-29T02:35:26;59.67;;;49.00;;
20067;SDS011;10194;50.824;7.134;2023-12-29T02:37:54;59.83;;;49.03;;
20067;SDS011;10194;50.824;7.134;2023-12-29T02:40:21;59.13;;;48.73;;
20067;SDS011;10194;50.824;7.134;2023-12-29T02:42:47;62.40;;;50.63;;
20067;SDS011;10194;50.824;7.134;2023-12-29T02:45:14;60.43;;;49.67;;
20067;SDS011;10194;50.824;7.134;2023-12-29T02:47:41;60.17;;;49.33;;
20067;SDS011;10194;50.824;7.134;2023-12-29T02:50:08;60.20;;;49.27;;
20067;SDS011;10194;50.824;7.134;2023-12-29T02:52:34;61.13;;;49.70;;
20067;SDS011;10194;50.824;7.134;2023-12-29T02:55:00;59.57;;;49.10;;
20067;SDS011;10194;50.824;7.134;2023-12-29T02:57:26;59.83;;;49.20;;
20067;SDS011;10194;50.824;7.134;2023-12-29T02:59:52;60.03;;;49.23;;
20067;SDS011;10194;50.824;7.134;2023-12-29T03:02:18;59.53;;;48.93;;
20067;SDS011;10194;50.824;7.134;2023-12-29T03:04:44;59.73;;;49.00;;
20067;SDS011;10194;50.824;7.134;2023-12-29T03:07:10;60.83;;;49.60;;
20067;SDS011;10194;50.824;7.134;2023-12-29T03:09:36;59.50;;;49.03;;
20067;SDS011;10194;50.824;7.134;2023-12-29T03:12:02;61.07;;;49.87;;
20067;SDS011;10194;50.824;7.134;2023-12-29T03:14:28;60.03;;;49.20;;
20067;SDS011;10194;50.824;7.134;2023-12-29T03:16:54;61.90;;;50.20;;
20067;SDS011;10194;50.824;7.134;2023-12-29T03:19:20;60.57;;;49.60;;
20067;SDS011;10194;50.824;7.134;2023-12-29T03:21:46;60.63;;;49.50;;
20067;SDS011;10194;50.824;7.134;2023-12-29T03:24:11;60.63;;;49.53;;
20067;SDS011;10194;50.824;7.134;2023-12-29T03:26:37;60.40;;;49.40;;
20067;SDS011;10194;50.824;7.134;2023-12-29T03:29:03;64.13;;;50.90;;
20067;SDS011;10194;50.824;7.134;2023-12-29T03:31:29;60.13;;;49.43;;
20067;SDS011;10194;50.824;7.134;2023-12-29T03:33:54;59.67;;;49.03;;
20067;SDS011;10194;50.824;7.134;2023-12-29T03:36:20;61.17;;;49.90;;
20067;SDS011;10194;50.824;7.134;2023-12-29T03:38:46;60.53;;;49.50;;
20067;SDS011;10194;50.824;7.134;2023-12-29T03:41:11;61.00;;;49.67;;
20067;SDS011;10194;50.824;7.134;2023-12-29T03:43:37;63.97;;;50.80;;
20067;SDS011;10194;50.824;7.134;2023-12-29T03:46:03;64.93;;;51.37;;
20067;SDS011;10194;50.824;7.134;2023-12-29T03:48:40;63.30;;;50.43;;
20067;SDS011;10194;50.824;7.134;2023-12-29T03:51:06;63.67;;;50.70;;
20067;SDS011;10194;50.824;7.134;2023-12-29T03:53:31;60.80;;;49.60;;
20067;SDS011;10194;50.824;7.134;2023-12-29T03:55:57;59.60;;;49.00;;
20067;SDS011;10194;50.824;7.134;2023-12-29T03:58:23;60.03;;;49.33;;
20067;SDS011;10194;50.824;7.134;2023-12-29T04:00:49;60.07;;;49.33;;
20067;SDS011;10194;50.824;7.134;2023-12-29T04:03:14;61.20;;;49.87;;
20067;SDS011;10194;50.824;7.134;2023-12-29T04:05:40;60.07;;;49.37;;
20067;SDS011;10194;50.824;7.134;2023-12-29T04:08:06;60.87;;;49.80;;
20067;SDS011;10194;50.824;7.134;2023-12-29T04:10:32;60.97;;;49.80;;
20067;SDS011;10194;50.824;7.134;2023-12-29T04:12:57;66.47;;;52.07;;
20067;SDS011;10194;50.824;7.134;2023-12-29T04:15:23;69.00;;;53.10;;
20067;SDS011;10194;50.824;7.134;2023-12-29T04:17:49;61.50;;;50.20;;
20067;SDS011;10194;50.824;7.134;2023-12-29T04:20:14;61.70;;;50.03;;
20067;SDS011;10194;50.824;7.134;2023-12-29T04:22:40;65.53;;;52.07;;
20067;SDS011;10194;50.824;7.134;2023-12-29T04:25:06;67.30;;;52.13;;
20067;SDS011;10194;50.824;7.134;2023-12-29T04:27:32;64.33;;;51.07;;
20067;SDS011;10194;50.824;7.134;2023-12-29T04:29:58;63.30;;;50.80;;
20067;SDS011;10194;50.824;7.134;2023-12-29T04:32:24;60.07;;;49.27;;
20067;SDS011;10194;50.824;7.134;2023-12-29T04:34:49;64.57;;;51.23;;
20067;SDS011;10194;50.824;7.134;2023-12-29T04:37:15;61.60;;;50.30;;
20067;SDS011;10194;50.824;7.134;2023-12-29T04:39:41;60.13;;;49.33;;
20067;SDS011;10194;50.824;7.134;2023-12-29T04:42:07;66.67;;;52.03;;
20067;SDS011;10194;50.824;7.134;2023-12-29T04:44:32;67.03;;;52.33;;
20067;SDS011;10194;50.824;7.134;2023-12-29T04:46:58;59.77;;;49.20;;
20067;SDS011;10194;50.824;7.134;2023-12-29T04:49:24;60.07;;;49.37;;
20067;SDS011;10194;50.824;7.134;2023-12-29T04:51:49;63.50;;;50.70;;
20067;SDS011;10194;50.824;7.134;2023-12-29T04:54:15;66.47;;;51.80;;
20067;SDS011;10194;50.824;7.134;2023-12-29T04:56:41;66.03;;;51.60;;
20067;SDS011;10194;50.824;7.134;2023-12-29T04:59:07;64.97;;;51.40;;
20067;SDS011;10194;50.824;7.134;2023-12-29T05:01:32;65.27;;;51.50;;
20067;SDS011;10194;50.824;7.134;2023-12-29T05:03:58;60.03;;;49.43;;
20067;SDS011;10194;50.824;7.134;2023-12-29T05:06:24;66.17;;;51.83;;
20067;SDS011;10194;50.824;7.134;2023-12-29T05:08:49;60.03;;;49.33;;
20067;SDS011;10194;50.824;7.134;2023-12-29T05:11:15;61.57;;;50.20;;
20067;SDS011;10194;50.824;7.134;2023-12-29T05:13:41;64.30;;;51.13;;
20067;SDS011;10194;50.824;7.134;2023-12-29T05:16:07;68.63;;;52.50;;
20067;SDS011;10194;50.824;7.134;2023-12-29T05:18:33;64.47;;;51.13;;
20067;SDS011;10194;50.824;7.134;2023-12-29T05:20:58;63.20;;;50.90;;
20067;SDS011;10194;50.824;7.134;2023-12-29T05:23:24;65.23;;;51.37;;
20067;SDS011;10194;50.824;7.134;2023-12-29T05:25:50;61.27;;;52.27;;
20067;SDS011;10194;50.824;7.134;2023-12-29T05:28:16;67.20;;;52.07;;
20067;SDS011;10194;50.824;7.134;2023-12-29T05:30:42;64.80;;;51.30;;
20067;SDS011;10194;50.824;7.134;2023-12-29T05:33:07;60.33;;;49.53;;
20067;SDS011;10194;50.824;7.134;2023-12-29T05:35:33;65.23;;;51.50;;
20067;SDS011;10194;50.824;7.134;2023-12-29T05:37:59;60.57;;;49.60;;
20067;SDS011;10194;50.824;7.134;2023-12-29T05:40:25;63.67;;;50.77;;
20067;SDS011;10194;50.824;7.134;2023-12-29T05:42:50;65.20;;;51.87;;
20067;SDS011;10194;50.824;7.134;2023-12-29T05:45:16;59.83;;;49.13;;
20067;SDS011;10194;50.824;7.134;2023-12-29T05:47:42;65.47;;;51.60;;
20067;SDS011;10194;50.824;7.134;2023-12-29T05:50:08;62.13;;;50.30;;
20067;SDS011;10194;50.824;7.134;2023-12-29T05:52:34;62.70;;;50.37;;
20067;SDS011;10194;50.824;7.134;2023-12-29T05:55:00;63.20;;;50.70;;
20067;SDS011;10194;50.824;7.134;2023-12-29T05:57:25;60.57;;;49.60;;
20067;SDS011;10194;50.824;7.134;2023-12-29T05:59:51;59.67;;;49.17;;
20067;SDS011;10194;50.824;7.134;2023-12-29T06:02:17;67.80;;;52.43;;
20067;SDS011;10194;50.824;7.134;2023-12-29T06:04:43;59.43;;;48.93;;
20067;SDS011;10194;50.824;7.134;2023-12-29T06:07:09;60.93;;;49.87;;
20067;SDS011;10194;50.824;7.134;2023-12-29T06:09:34;61.50;;;49.80;;
20067;SDS011;10194;50.824;7.134;2023-12-29T06:12:01;60.77;;;49.77;;
20067;SDS011;10194;50.824;7.134;2023-12-29T06:14:27;65.43;;;51.33;;
20067;SDS011;10194;50.824;7.134;2023-12-29T06:16:52;63.37;;;50.47;;
20067;SDS011;10194;50.824;7.134;2023-12-29T06:19:18;61.90;;;50.20;;
20067;SDS011;10194;50.824;7.134;2023-12-29T06:21:44;63.90;;;50.80;;
20067;SDS011;10194;50.824;7.134;2023-12-29T06:24:10;64.60;;;51.17;;
20067;SDS011;10194;50.824;7.134;2023-12-29T06:26:36;67.37;;;52.23;;
20067;SDS011;10194;50.824;7.134;2023-12-29T06:29:08;66.80;;;51.93;;
20067;SDS011;10194;50.824;7.134;2023-12-29T06:31:34;62.90;;;50.90;;
20067;SDS011;10194;50.824;7.134;2023-12-29T06:34:00;65.73;;;51.63;;
20067;SDS011;10194;50.824;7.134;2023-12-29T06:36:26;65.47;;;51.50;;
20067;SDS011;10194;50.824;7.134;2023-12-29T06:38:52;63.90;;;50.77;;
20067;SDS011;10194;50.824;7.134;2023-12-29T06:41:18;61.97;;;50.17;;
20067;SDS011;10194;50.824;7.134;2023-12-29T06:43:44;65.80;;;51.60;;
20067;SDS011;10194;50.824;7.134;2023-12-29T06:46:10;62.23;;;50.20;;
20067;SDS011;10194;50.824;7.134;2023-12-29T06:48:39;61.50;;;50.07;;
20067;SDS011;10194;50.824;7.134;2023-12-29T06:51:05;61.50;;;50.10;;
20067;SDS011;10194;50.824;7.134;2023-12-29T06:53:31;69.20;;;52.97;;
20067;SDS011;10194;50.824;7.134;2023-12-29T06:55:57;65.80;;;51.80;;
20067;SDS011;10194;50.824;7.134;2023-12-29T06:58:23;63.50;;;50.77;;
20067;SDS011;10194;50.824;7.134;2023-12-29T07:00:48;60.23;;;49.60;;
20067;SDS011;10194;50.824;7.134;2023-12-29T07:03:14;61.23;;;49.83;;
20067;SDS011;10194;50.824;7.134;2023-12-29T07:05:40;65.33;;;51.47;;
20067;SDS011;10194;50.824;7.134;2023-12-29T07:08:06;64.03;;;51.13;;
20067;SDS011;10194;50.824;7.134;2023-12-29T07:10:32;62.60;;;50.37;;
20067;SDS011;10194;50.824;7.134;2023-12-29T07:12:58;60.20;;;49.33;;
20067;SDS011;10194;50.824;7.134;2023-12-29T07:15:24;65.43;;;51.53;;
20067;SDS011;10194;50.824;7.134;2023-12-29T07:17:49;63.27;;;50.63;;
20067;SDS011;10194;50.824;7.134;2023-12-29T07:20:15;62.47;;;50.37;;
20067;SDS011;10194;50.824;7.134;2023-12-29T07:22:41;68.27;;;52.93;;
20067;SDS011;10194;50.824;7.134;2023-12-29T07:25:07;64.47;;;50.97;;
20067;SDS011;10194;50.824;7.134;2023-12-29T07:27:33;66.77;;;52.00;;
20067;SDS011;10194;50.824;7.134;2023-12-29T07:29:59;59.27;;;49.00;;
20067;SDS011;10194;50.824;7.134;2023-12-29T07:32:25;59.97;;;49.27;;
20067;SDS011;10194;50.824;7.134;2023-12-29T07:34:51;60.67;;;49.47;;
20067;SDS011;10194;50.824;7.134;2023-12-29T07:37:16;59.60;;;49.13;;
20067;SDS011;10194;50.824;7.134;2023-12-29T07:39:42;61.67;;;49.93;;
20067;SDS011;10194;50.824;7.134;2023-12-29T07:42:08;59.60;;;49.10;;
20067;SDS011;10194;50.824;7.134;2023-12-29T07:44:34;62.53;;;50.13;;
20067;SDS011;10194;50.824;7.134;2023-12-29T07:46:59;60.87;;;49.67;;
20067;SDS011;10194;50.824;7.134;2023-12-29T07:49:25;63.37;;;50.67;;
20067;SDS011;10194;50.824;7.134;2023-12-29T07:51:51;60.77;;;49.53;;
20067;SDS011;10194;50.824;7.134;2023-12-29T07:54:17;64.80;;;51.20;;
20067;SDS011;10194;50.824;7.134;2023-12-29T07:56:43;61.70;;;49.93;;
20067;SDS011;10194;50.824;7.134;2023-12-29T07:59:08;60.30;;;49.53;;
20067;SDS011;10194;50.824;7.134;2023-12-29T08:01:34;62.37;;;50.30;;
20067;SDS011;10194;50.824;7.134;2023-12-29T08:04:02;61.40;;;49.90;;
20067;SDS011;10194;50.824;7.134;2023-12-29T08:06:28;59.87;;;49.30;;
20067;SDS011;10194;50.824;7.134;2023-12-29T08:08:54;59.63;;;49.07;;
20067;SDS011;10194;50.824;7.134;2023-12-29T08:11:20;64.53;;;50.73;;
20067;SDS011;10194;50.824;7.134;2023-12-29T08:13:46;60.57;;;49.50;;
20067;SDS011;10194;50.824;7.134;2023-12-29T08:16:14;61.27;;;49.77;;
20067;SDS011;10194;50.824;7.134;2023-12-29T08:18:42;65.47;;;51.40;;
20067;SDS011;10194;50.824;7.134;2023-12-29T08:21:08;64.63;;;51.10;;
20067;SDS011;10194;50.824;7.134;2023-12-29T08:23:34;64.87;;;51.20;;
20067;SDS011;10194;50.824;7.134;2023-12-29T08:25:59;61.90;;;52.87;;
20067;SDS011;10194;50.824;7.134;2023-12-29T08:28:28;64.47;;;51.20;;
20067;SDS011;10194;50.824;7.134;2023-12-29T08:30:54;67.33;;;52.40;;
20067;SDS011;10194;50.824;7.134;2023-12-29T08:33:19;65.27;;;51.53;;
20067;SDS011;10194;50.824;7.134;2023-12-29T08:35:45;64.63;;;51.30;;
20067;SDS011;10194;50.824;7.134;2023-12-29T08:38:11;66.27;;;51.83;;
20067;SDS011;10194;50.824;7.134;2023-12-29T08:40:37;63.40;;;50.90;;
20067;SDS011;10194;50.824;7.134;2023-12-29T08:43:03;66.03;;;51.70;;
20067;SDS011;10194;50.824;7.134;2023-12-29T08:45:29;66.60;;;52.07;;
20067;SDS011;10194;50.824;7.134;2023-12-29T08:47:55;66.30;;;52.23;;
20067;SDS011;10194;50.824;7.134;2023-12-29T08:50:20;65.17;;;51.70;;
20067;SDS011;10194;50.824;7.134;2023-12-29T08:52:47;70.70;;;54.17;;
20067;SDS011;10194;50.824;7.134;2023-12-29T08:55:12;62.87;;;50.67;;
20067;SDS011;10194;50.824;7.134;2023-12-29T08:57:38;60.93;;;49.93;;
20067;SDS011;10194;50.824;7.134;2023-12-29T09:00:04;65.67;;;51.63;;
20067;SDS011;10194;50.824;7.134;2023-12-29T09:02:31;66.27;;;52.03;;
20067;SDS011;10194;50.824;7.134;2023-12-29T09:04:56;68.10;;;53.20;;
20067;SDS011;10194;50.824;7.134;2023-12-29T09:07:22;60.83;;;50.00;;
20067;SDS011;10194;50.824;7.134;2023-12-29T09:09:48;62.77;;;50.53;;
20067;SDS011;10194;50.824;7.134;2023-12-29T09:12:14;60.63;;;49.83;;
20067;SDS011;10194;50.824;7.134;2023-12-29T09:14:40;60.80;;;50.20;;
20067;SDS011;10194;50.824;7.134;2023-12-29T09:17:06;67.50;;;52.70;;
20067;SDS011;10194;50.824;7.134;2023-12-29T09:19:31;64.93;;;51.43;;
20067;SDS011;10194;50.824;7.134;2023-12-29T09:21:57;67.90;;;52.57;;
20067;SDS011;10194;50.824;7.134;2023-12-29T09:24:23;61.13;;;50.03;;
20067;SDS011;10194;50.824;7.134;2023-12-29T09:26:49;60.67;;;49.87;;
20067;SDS011;10194;50.824;7.134;2023-12-29T09:29:16;67.53;;;52.50;;
20067;SDS011;10194;50.824;7.134;2023-12-29T09:31:41;65.23;;;51.50;;
20067;SDS011;10194;50.824;7.134;2023-12-29T09:34:07;60.87;;;49.93;;
20067;SDS011;10194;50.824;7.134;2023-12-29T09:36:33;65.53;;;51.50;;
20067;SDS011;10194;50.824;7.134;2023-12-29T09:38:59;63.10;;;50.70;;
20067;SDS011;10194;50.824;7.134;2023-12-29T09:41:25;66.47;;;52.00;;
20067;SDS011;10194;50.824;7.134;2023-12-29T09:43:53;65.77;;;51.77;;
20067;SDS011;10194;50.824;7.134;2023-12-29T09:46:19;63.20;;;50.77;;
20067;SDS011;10194;50.824;7.134;2023-12-29T09:48:48;63.77;;;50.93;;
20067;SDS011;10194;50.824;7.134;2023-12-29T09:51:17;65.83;;;51.90;;
20067;SDS011;10194;50.824;7.134;2023-12-29T09:53:48;65.13;;;51.23;;
20067;SDS011;10194;50.824;7.134;2023-12-29T09:56:17;65.33;;;51.23;;
20067;SDS011;10194;50.824;7.134;2023-12-29T09:58:46;66.33;;;51.67;;
20067;SDS011;10194;50.824;7.134;2023-12-29T10:01:13;65.33;;;51.47;;
20067;SDS011;10194;50.824;7.134;2023-12-29T10:03:39;63.70;;;50.93;;
20067;SDS011;10194;50.824;7.134;2023-12-29T10:06:06;60.77;;;49.80;;
20067;SDS011;10194;50.824;7.134;2023-12-29T10:08:35;65.47;;;51.77;;
20067;SDS011;10194;50.824;7.134;2023-12-29T10:11:03;60.03;;;49.33;;
20067;SDS011;10194;50.824;7.134;2023-12-29T10:13:31;68.80;;;52.70;;
20067;SDS011;10194;50.824;7.134;2023-12-29T10:16:13;60.20;;;49.53;;
20067;SDS011;10194;50.824;7.134;2023-12-29T10:22:03;62.07;;;50.03;;
20067;SDS011;10194;50.824;7.134;2023-12-29T10:24:39;60.67;;;49.80;;
20067;SDS011;10194;50.824;7.134;2023-12-29T10:27:08;62.43;;;50.50;;
20067;SDS011;10194;50.824;7.134;2023-12-29T10:29:34;65.07;;;51.70;;
20067;SDS011;10194;50.824;7.134;2023-12-29T10:32:02;68.00;;;52.87;;
20067;SDS011;10194;50.824;7.134;2023-12-29T10:34:27;62.17;;;50.60;;
20067;SDS011;10194;50.824;7.134;2023-12-29T10:36:54;65.50;;;52.00;;
20067;SDS011;10194;50.824;7.134;2023-12-29T10:39:21;62.57;;;50.90;;
20067;SDS011;10194;50.824;7.134;2023-12-29T10:41:48;68.87;;;53.33;;
20067;SDS011;10194;50.824;7.134;2023-12-29T10:44:15;65.80;;;52.13;;
20067;SDS011;10194;50.824;7.134;2023-12-29T10:46:41;65.57;;;52.40;;
20067;SDS011;10194;50.824;7.134;2023-12-29T10:49:10;64.87;;;52.00;;
20067;SDS011;10194;50.824;7.134;2023-12-29T10:51:37;67.17;;;52.70;;
20067;SDS011;10194;50.824;7.134;2023-12-29T10:54:04;65.93;;;52.37;;
20067;SDS011;10194;50.824;7.134;2023-12-29T10:56:31;69.10;;;53.63;;
20067;SDS011;10194;50.824;7.134;2023-12-29T10:58:59;68.13;;;53.00;;
20067;SDS011;10194;50.824;7.134;2023-12-29T11:01:28;66.80;;;52.53;;
20067;SDS011;10194;50.824;7.134;2023-12-29T11:04:02;61.93;;;50.73;;
20067;SDS011;10194;50.824;7.134;2023-12-29T11:06:40;63.77;;;51.40;;
20067;SDS011;10194;50.824;7.134;2023-12-29T11:09:09;61.93;;;50.80;;
20067;SDS011;10194;50.824;7.134;2023-12-29T11:11:37;68.37;;;53.10;;
20067;SDS011;10194;50.824;7.134;2023-12-29T11:14:03;67.23;;;52.70;;
20067;SDS011;10194;50.824;7.134;2023-12-29T11:16:30;62.97;;;51.17;;
20067;SDS011;10194;50.824;7.134;2023-12-29T11:18:57;61.90;;;50.77;;
20067;SDS011;10194;50.824;7.134;2023-12-29T11:21:24;64.50;;;51.63;;
20067;SDS011;10194;50.824;7.134;2023-12-29T11:23:53;64.73;;;51.93;;
20067;SDS011;10194;50.824;7.134;2023-12-29T11:26:18;68.90;;;53.70;;
20067;SDS011;10194;50.824;7.134;2023-12-29T11:28:48;69.77;;;53.97;;
20067;SDS011;10194;50.824;7.134;2023-12-29T11:31:18;62.53;;;52.10;;
20067;SDS011;10194;50.824;7.134;2023-12-29T11:33:46;64.90;;;51.80;;
20067;SDS011;10194;50.824;7.134;2023-12-29T11:36:29;63.83;;;51.50;;
20067;SDS011;10194;50.824;7.134;2023-12-29T11:39:06;65.77;;;52.27;;
20067;SDS011;10194;50.824;7.134;2023-12-29T11:41:49;70.10;;;54.43;;
20067;SDS011;10194;50.824;7.134;2023-12-29T11:44:28;62.97;;;51.27;;
20067;SDS011;10194;50.824;7.134;2023-12-29T11:46:55;66.60;;;52.90;;
20067;SDS011;10194;50.824;7.134;2023-12-29T11:49:22;71.40;;;54.70;;
20067;SDS011;10194;50.824;7.134;2023-12-29T11:51:49;73.07;;;57.20;;
20067;SDS011;10194;50.824;7.134;2023-12-29T11:54:25;71.23;;;54.63;;
20067;SDS011;10194;50.824;7.134;2023-12-29T11:56:54;74.97;;;56.70;;
20067;SDS011;10194;50.824;7.134;2023-12-29T11:59:21;72.90;;;55.77;;
20067;SDS011;10194;50.824;7.134;2023-12-29T12:01:53;71.20;;;55.63;;
20067;SDS011;10194;50.824;7.134;2023-12-29T12:04:42;63.07;;;51.27;;
20067;SDS011;10194;50.824;7.134;2023-12-29T12:10:28;72.50;;;55.43;;
20067;SDS011;10194;50.824;7.134;2023-12-29T12:12:44;73.00;;;56.20;;
20067;SDS011;10194;50.824;7.134;2023-12-29T12:17:52;67.47;;;53.23;;
20067;SDS011;10194;50.824;7.134;2023-12-29T12:20:18;73.17;;;55.83;;
20067;SDS011;10194;50.824;7.134;2023-12-29T12:22:44;71.40;;;55.43;;
20067;SDS011;10194;50.824;7.134;2023-12-29T12:25:15;70.53;;;54.50;;
20067;SDS011;10194;50.824;7.134;2023-12-29T12:27:41;70.87;;;54.53;;
20067;SDS011;10194;50.824;7.134;2023-12-29T12:30:07;72.50;;;55.10;;
20067;SDS011;10194;50.824;7.134;2023-12-29T12:32:35;68.30;;;53.73;;
20067;SDS011;10194;50.824;7.134;2023-12-29T12:35:00;67.77;;;53.40;;
20067;SDS011;10194;50.824;7.134;2023-12-29T12:37:27;66.03;;;52.67;;
20067;SDS011;10194;50.824;7.134;2023-12-29T12:39:55;69.07;;;53.80;;
20067;SDS011;10194;50.824;7.134;2023-12-29T12:42:21;69.80;;;54.00;;
20067;SDS011;10194;50.824;7.134;2023-12-29T12:50:16;64.87;;;52.17;;
20067;SDS011;10194;50.824;7.134;2023-12-29T12:52:42;68.47;;;54.10;;
20067;SDS011;10194;50.824;7.134;2023-12-29T12:55:08;62.50;;;51.37;;
20067;SDS011;10194;50.824;7.134;2023-12-29T12:57:36;62.47;;;51.27;;
20067;SDS011;10194;50.824;7.134;2023-12-29T13:00:02;62.97;;;51.27;;
20067;SDS011;10194;50.824;7.134;2023-12-29T13:02:30;66.83;;;53.07;;
20067;SDS011;10194;50.824;7.134;2023-12-29T13:04:58;62.53;;;51.23;;
20067;SDS011;10194;50.824;7.134;2023-12-29T13:07:24;71.43;;;54.73;;
20067;SDS011;10194;50.824;7.134;2023-12-29T13:09:50;66.47;;;52.73;;
20067;SDS011;10194;50.824;7.134;2023-12-29T13:12:17;70.43;;;54.33;;
20067;SDS011;10194;50.824;7.134;2023-12-29T13:14:44;67.90;;;53.30;;
20067;SDS011;10194;50.824;7.134;2023-12-29T13:17:11;66.03;;;52.47;;
20067;SDS011;10194;50.824;7.134;2023-12-29T13:19:40;66.27;;;52.70;;
20067;SDS011;10194;50.824;7.134;2023-12-29T13:22:06;69.80;;;54.07;;
20067;SDS011;10194;50.824;7.134;2023-12-29T13:24:35;69.13;;;53.83;;
20067;SDS011;10194;50.824;7.134;2023-12-29T13:27:04;67.87;;;53.20;;
20067;SDS011;10194;50.824;7.134;2023-12-29T13:29:32;67.80;;;53.10;;
20067;SDS011;10194;50.824;7.134;2023-12-29T13:32:02;70.17;;;54.07;;
20067;SDS011;10194;50.824;7.134;2023-12-29T13:34:39;65.03;;;51.93;;
20067;SDS011;10194;50.824;7.134;2023-12-29T13:37:49;67.13;;;52.73;;
20067;SDS011;10194;50.824;7.134;2023-12-29T13:43:19;65.63;;;52.13;;
20067;SDS011;10194;50.824;7.134;2023-12-29T13:45:46;69.97;;;53.93;;
20067;SDS011;10194;50.824;7.134;2023-12-29T13:48:13;62.30;;;51.00;;
20067;SDS011;10194;50.824;7.134;2023-12-29T13:50:44;66.20;;;52.40;;
20067;SDS011;10194;50.824;7.134;2023-12-29T13:53:16;66.27;;;52.60;;
20067;SDS011;10194;50.824;7.134;2023-12-29T13:55:46;65.77;;;52.53;;
20067;SDS011;10194;50.824;7.134;2023-12-29T13:58:12;61.80;;;50.63;;
20067;SDS011;10194;50.824;7.134;2023-12-29T14:00:41;66.80;;;52.83;;
20067;SDS011;10194;50.824;7.134;2023-12-29T14:03:16;62.80;;;50.93;;
20067;SDS011;10194;50.824;7.134;2023-12-29T14:05:55;68.47;;;53.20;;
20067;SDS011;10194;50.824;7.134;2023-12-29T14:08:26;67.03;;;52.60;;
20067;SDS011;10194;50.824;7.134;2023-12-29T14:11:12;61.50;;;50.43;;
20067;SDS011;10194;50.824;7.134;2023-12-29T14:13:42;61.50;;;50.37;;
20067;SDS011;10194;50.824;7.134;2023-12-29T14:16:09;62.93;;;50.80;;
20067;SDS011;10194;50.824;7.134;2023-12-29T14:21:28;64.20;;;51.23;;
20067;SDS011;10194;50.824;7.134;2023-12-29T14:24:11;66.40;;;52.20;;
20067;SDS011;10194;50.824;7.134;2023-12-29T14:29:24;64.83;;;51.33;;
20067;SDS011;10194;50.824;7.134;2023-12-29T14:31:50;64.40;;;51.30;;
20067;SDS011;10194;50.824;7.134;2023-12-29T14:34:17;66.43;;;52.00;;
20067;SDS011;10194;50.824;7.134;2023-12-29T14:36:43;68.93;;;53.07;;
20067;SDS011;10194;50.824;7.134;2023-12-29T14:39:11;65.80;;;51.70;;
20067;SDS011;10194;50.824;7.134;2023-12-29T14:41:36;63.20;;;50.80;;
20067;SDS011;10194;50.824;7.134;2023-12-29T14:44:03;63.90;;;50.93;;
20067;SDS011;10194;50.824;7.134;2023-12-29T14:46:29;59.97;;;49.40;;